Time,TemperatureF,DewpointF,PressureIn,WindDirection,WindDirectionDegrees,WindSpeedMPH,WindSpeedGustMPH,Humidity,HourlyPrecipIn,Conditions,Clouds,dailyrainin,SolarRadiationWatts/m^2,SoftwareType,DateUTC
2013-10-28 00:09:00,50.5,48.0,30.14,SSE,166,0.0,2.0,91,0.00,,,0.00,0,weatherlink.com 1.10,2013-10-28 04:09:00,
2013-10-28 00:24:00,49.4,47.0,30.14,SSE,166,0.0,2.0,92,0.00,,,0.00,0,weatherlink.com 1.10,2013-10-28 04:24:00,
2013-10-28 00:39:00,49.7,48.0,30.14,SSE,166,0.0,0.0,94,0.00,,,0.00,0,weatherlink.com 1.10,2013-10-28 04:39:00,
2013-10-28 00:54:00,50.1,49.0,30.14,SSE,166,0.0,0.0,94,0.00,,,0.00,0,weatherlink.com 1.10,2013-10-28 04:54:00,
2013-10-28 01:09:00,50.3,49.0,30.14,SSE,166,0.0,0.0,94,0.00,,,0.00,0,weatherlink.com 1.10,2013-10-28 05:09:00,
2013-10-28 01:24:00,50.3,49.0,30.14,SSE,166,0.0,0.0,94,0.00,,,0.00,0,weatherlink.com 1.10,2013-10-28 05:24:00,
2013-10-28 01:39:00,50.2,49.0,30.13,SSE,166,0.0,0.0,94,0.00,,,0.00,0,weatherlink.com 1.10,2013-10-28 05:39:00,
2013-10-28 01:54:00,50.3,49.0,30.13,ESE,118,1.0,2.0,94,0.00,,,0.00,0,weatherlink.com 1.10,2013-10-28 05:54:00,
2013-10-28 02:09:00,50.2,49.0,30.13,ESE,118,0.0,0.0,94,0.00,,,0.00,0,weatherlink.com 1.10,2013-10-28 06:09:00,
2013-10-28 02:24:00,50.2,49.0,30.13,ESE,118,0.0,0.0,94,0.00,,,0.00,0,weatherlink.com 1.10,2013-10-28 06:24:00,
2013-10-28 02:39:00,50.2,49.0,30.14,ESE,118,0.0,0.0,94,0.00,,,0.00,0,weatherlink.com 1.10,2013-10-28 06:39:00,
2013-10-28 02:54:00,49.9,48.0,30.13,ESE,118,0.0,0.0,94,0.00,,,0.00,0,weatherlink.com 1.10,2013-10-28 06:54:00,
2013-10-28 03:09:00,49.7,48.0,30.14,ESE,118,0.0,0.0,94,0.00,,,0.00,0,weatherlink.com 1.10,2013-10-28 07:09:00,
2013-10-28 03:24:00,50.0,48.0,30.14,ESE,118,0.0,0.0,94,0.00,,,0.00,0,weatherlink.com 1.10,2013-10-28 07:24:00,
2013-10-28 03:39:00,50.2,49.0,30.14,ESE,118,0.0,0.0,94,0.00,,,0.00,0,weatherlink.com 1.10,2013-10-28 07:39:00,
2013-10-28 03:54:00,50.3,49.0,30.14,ESE,118,0.0,0.0,94,0.00,,,0.00,0,weatherlink.com 1.10,2013-10-28 07:54:00,
2013-10-28 04:09:00,50.5,49.0,30.15,ESE,118,0.0,0.0,94,0.00,,,0.00,0,weatherlink.com 1.10,2013-10-28 08:09:00,
2013-10-28 04:24:00,50.6,49.0,30.15,ESE,118,1.0,2.0,94,0.00,,,0.00,0,weatherlink.com 1.10,2013-10-28 08:24:00,
2013-10-28 04:39:00,50.9,49.0,30.15,ESE,118,0.0,0.0,94,0.00,,,0.00,0,weatherlink.com 1.10,2013-10-28 08:39:00,
2013-10-28 04:54:00,50.9,49.0,30.16,ESE,118,0.0,0.0,94,0.00,,,0.00,0,weatherlink.com 1.10,2013-10-28 08:54:00,
2013-10-28 05:09:00,51.0,49.0,30.16,ESE,118,0.0,1.0,94,0.00,,,0.00,0,weatherlink.com 1.10,2013-10-28 09:09:00,
2013-10-28 05:24:00,51.3,50.0,30.17,ESE,118,0.0,1.0,94,0.00,,,0.00,0,weatherlink.com 1.10,2013-10-28 09:24:00,
2013-10-28 05:39:00,51.3,50.0,30.17,ESE,107,0.0,3.0,94,0.01,,,0.01,0,weatherlink.com 1.10,2013-10-28 09:39:00,
2013-10-28 05:54:00,51.3,50.0,30.18,ESE,107,0.0,2.0,94,0.02,,,0.02,0,weatherlink.com 1.10,2013-10-28 09:54:00,
2013-10-28 06:09:00,51.3,50.0,30.18,ESE,107,0.0,1.0,94,0.02,,,0.02,0,weatherlink.com 1.10,2013-10-28 10:09:00,
2013-10-28 06:24:00,51.2,50.0,30.18,East,101,3.0,5.0,94,0.03,,,0.04,0,weatherlink.com 1.10,2013-10-28 10:24:00,
2013-10-28 06:39:00,51.4,50.0,30.18,ESE,107,0.0,2.0,95,0.03,,,0.04,0,weatherlink.com 1.10,2013-10-28 10:39:00,
2013-10-28 06:54:00,51.4,50.0,30.18,ESE,107,0.0,1.0,95,0.02,,,0.04,0,weatherlink.com 1.10,2013-10-28 10:54:00,
2013-10-28 07:09:00,51.8,51.0,30.18,South,182,0.0,4.0,95,0.02,,,0.04,0,weatherlink.com 1.10,2013-10-28 11:09:00,
2013-10-28 07:24:00,51.7,50.0,30.18,South,182,0.0,0.0,94,0.00,,,0.04,0,weatherlink.com 1.10,2013-10-28 11:24:00,
2013-10-28 07:39:00,51.3,50.0,30.19,South,182,0.0,0.0,94,0.00,,,0.04,0,weatherlink.com 1.10,2013-10-28 11:39:00,
2013-10-28 07:54:00,51.1,50.0,30.19,South,182,0.0,0.0,94,0.00,,,0.04,0,weatherlink.com 1.10,2013-10-28 11:54:00,
2013-10-28 08:09:00,50.9,50.0,30.20,South,181,0.0,0.0,95,0.00,,,0.04,5,weatherlink.com 1.10,2013-10-28 12:09:00,
2013-10-28 08:24:00,50.9,50.0,30.20,South,181,0.0,0.0,95,0.00,,,0.04,11,weatherlink.com 1.10,2013-10-28 12:24:00,
2013-10-28 08:39:00,51.0,50.0,30.20,South,181,0.0,0.0,95,0.00,,,0.04,28,weatherlink.com 1.10,2013-10-28 12:39:00,
2013-10-28 08:54:00,51.4,50.0,30.21,South,181,0.0,1.0,95,0.00,,,0.04,44,weatherlink.com 1.10,2013-10-28 12:54:00,
2013-10-28 09:09:00,51.8,51.0,30.22,South,181,0.0,0.0,95,0.00,,,0.04,76,weatherlink.com 1.10,2013-10-28 13:09:00,
2013-10-28 09:25:00,52.5,51.0,30.22,ESE,116,0.0,2.0,95,0.00,,,0.04,98,weatherlink.com 1.10,2013-10-28 13:25:00,
2013-10-28 09:40:00,52.9,52.0,30.23,ESE,116,0.0,0.0,95,0.00,,,0.04,72,weatherlink.com 1.10,2013-10-28 13:40:00,
2013-10-28 09:55:00,54.2,53.0,30.24,WSW,252,0.0,1.0,95,0.00,,,0.04,169,weatherlink.com 1.10,2013-10-28 13:55:00,
2013-10-28 10:10:00,54.4,53.0,30.23,WNW,284,0.0,2.0,93,0.00,,,0.04,127,weatherlink.com 1.10,2013-10-28 14:10:00,
2013-10-28 10:25:00,54.8,53.0,30.24,SW,217,0.0,0.0,93,0.00,,,0.04,98,weatherlink.com 1.10,2013-10-28 14:25:00,
2013-10-28 10:40:00,55.0,53.0,30.24,SW,217,0.0,1.0,93,0.00,,,0.04,60,weatherlink.com 1.10,2013-10-28 14:40:00,
2013-10-28 10:55:00,55.1,53.0,30.24,SW,217,0.0,0.0,93,0.00,,,0.04,120,weatherlink.com 1.10,2013-10-28 14:55:00,
2013-10-28 11:10:00,55.7,54.0,30.24,SSW,205,1.0,2.0,93,0.00,,,0.04,160,weatherlink.com 1.10,2013-10-28 15:10:00,
2013-10-28 11:25:00,56.2,54.0,30.24,South,175,1.0,4.0,92,0.00,,,0.04,204,weatherlink.com 1.10,2013-10-28 15:25:00,
2013-10-28 11:40:00,56.6,54.0,30.24,SW,226,0.0,2.0,91,0.00,,,0.04,206,weatherlink.com 1.10,2013-10-28 15:40:00,
2013-10-28 11:55:00,57.0,55.0,30.25,SSW,196,0.0,3.0,91,0.00,,,0.04,179,weatherlink.com 1.10,2013-10-28 15:55:00,
2013-10-28 12:10:00,57.6,55.0,30.25,North,355,0.0,3.0,90,0.00,,,0.04,246,weatherlink.com 1.10,2013-10-28 16:10:00,
2013-10-28 12:25:00,58.5,55.0,30.24,North,355,0.0,1.0,89,0.00,,,0.04,292,weatherlink.com 1.10,2013-10-28 16:25:00,
2013-10-28 12:40:00,59.2,55.0,30.23,NNW,329,0.0,2.0,85,0.00,,,0.04,812,weatherlink.com 1.10,2013-10-28 16:40:00,
2013-10-28 12:55:00,61.0,54.0,30.23,SSW,197,3.0,5.0,77,0.00,,,0.04,306,weatherlink.com 1.10,2013-10-28 16:55:00,
2013-10-28 13:10:00,61.2,53.0,30.23,WSW,238,3.0,5.0,75,0.00,,,0.04,304,weatherlink.com 1.10,2013-10-28 17:10:00,
2013-10-28 13:25:00,61.3,54.0,30.22,West,279,0.0,3.0,76,0.00,,,0.04,237,weatherlink.com 1.10,2013-10-28 17:25:00,
2013-10-28 13:40:00,61.3,53.0,30.22,South,188,3.0,5.0,74,0.00,,,0.04,156,weatherlink.com 1.10,2013-10-28 17:40:00,
2013-10-28 13:55:00,61.3,52.0,30.21,SW,225,4.0,7.0,72,0.00,,,0.04,190,weatherlink.com 1.10,2013-10-28 17:55:00,
2013-10-28 14:10:00,61.5,52.0,30.20,SSW,196,2.0,5.0,70,0.00,,,0.04,223,weatherlink.com 1.10,2013-10-28 18:10:00,
2013-10-28 14:25:00,61.5,52.0,30.20,SW,217,0.0,5.0,71,0.00,,,0.04,118,weatherlink.com 1.10,2013-10-28 18:25:00,
2013-10-28 14:40:00,61.0,52.0,30.20,WSW,246,1.0,4.0,73,0.00,,,0.04,53,weatherlink.com 1.10,2013-10-28 18:40:00,
2013-10-28 14:55:00,60.2,52.0,30.19,WSW,239,2.0,7.0,74,0.00,,,0.04,60,weatherlink.com 1.10,2013-10-28 18:55:00,
2013-10-28 15:10:00,60.4,52.0,30.19,NW,322,2.0,3.0,74,0.00,,,0.04,146,weatherlink.com 1.10,2013-10-28 19:10:00,
2013-10-28 15:25:00,61.2,52.0,30.19,WSW,253,1.0,5.0,71,0.00,,,0.04,144,weatherlink.com 1.10,2013-10-28 19:25:00,
2013-10-28 15:40:00,61.3,51.0,30.18,West,277,0.0,4.0,70,0.00,,,0.04,81,weatherlink.com 1.10,2013-10-28 19:40:00,
2013-10-28 15:55:00,61.2,52.0,30.18,West,273,0.0,4.0,72,0.00,,,0.04,114,weatherlink.com 1.10,2013-10-28 19:55:00,
2013-10-28 16:10:00,61.0,52.0,30.18,North,5,3.0,4.0,72,0.00,,,0.04,62,weatherlink.com 1.10,2013-10-28 20:10:00,
2013-10-28 16:25:00,60.6,52.0,30.18,West,275,0.0,5.0,73,0.00,,,0.04,35,weatherlink.com 1.10,2013-10-28 20:25:00,
2013-10-28 16:40:00,60.1,52.0,30.19,NW,306,1.0,3.0,74,0.00,,,0.04,26,weatherlink.com 1.10,2013-10-28 20:40:00,
2013-10-28 16:55:00,59.8,52.0,30.19,NW,311,1.0,4.0,75,0.00,,,0.04,26,weatherlink.com 1.10,2013-10-28 20:55:00,
2013-10-28 17:10:00,59.6,52.0,30.20,WSW,247,0.0,4.0,76,0.00,,,0.04,14,weatherlink.com 1.10,2013-10-28 21:10:00,
2013-10-28 17:25:00,59.3,52.0,30.20,NW,311,0.0,5.0,76,0.00,,,0.04,14,weatherlink.com 1.10,2013-10-28 21:25:00,
2013-10-28 17:40:00,59.1,52.0,30.20,West,273,0.0,3.0,77,0.00,,,0.04,12,weatherlink.com 1.10,2013-10-28 21:40:00,
2013-10-28 17:55:00,58.9,52.0,30.20,WNW,292,0.0,4.0,78,0.00,,,0.04,7,weatherlink.com 1.10,2013-10-28 21:55:00,
2013-10-28 18:10:00,58.7,52.0,30.20,WNW,296,1.0,2.0,78,0.00,,,0.04,5,weatherlink.com 1.10,2013-10-28 22:10:00,
2013-10-28 18:25:00,58.4,52.0,30.21,WNW,298,0.0,0.0,80,0.00,,,0.04,0,weatherlink.com 1.10,2013-10-28 22:25:00,
2013-10-28 18:40:00,57.9,52.0,30.21,WNW,298,0.0,0.0,81,0.00,,,0.04,0,weatherlink.com 1.10,2013-10-28 22:40:00,
2013-10-28 18:55:00,57.8,53.0,30.21,NW,305,0.0,3.0,83,0.00,,,0.04,0,weatherlink.com 1.10,2013-10-28 22:55:00,
2013-10-28 19:10:00,57.5,53.0,30.22,NW,305,0.0,2.0,85,0.00,,,0.04,0,weatherlink.com 1.10,2013-10-28 23:10:00,
2013-10-28 19:25:00,57.2,53.0,30.22,NW,305,0.0,0.0,85,0.00,,,0.04,0,weatherlink.com 1.10,2013-10-28 23:25:00,
2013-10-28 19:40:00,56.8,53.0,30.23,North,350,3.0,5.0,86,0.00,,,0.04,0,weatherlink.com 1.10,2013-10-28 23:40:00,
2013-10-28 19:55:00,56.4,53.0,30.24,North,351,2.0,3.0,87,0.00,,,0.04,0,weatherlink.com 1.10,2013-10-28 23:55:00,
2013-10-28 20:10:00,56.2,52.0,30.24,North,355,0.0,3.0,87,0.00,,,0.04,0,weatherlink.com 1.10,2013-10-29 00:10:00,
2013-10-28 20:25:00,56.0,53.0,30.25,North,355,0.0,0.0,88,0.00,,,0.04,0,weatherlink.com 1.10,2013-10-29 00:25:00,
2013-10-28 20:40:00,55.9,52.0,30.25,North,355,0.0,0.0,88,0.00,,,0.04,0,weatherlink.com 1.10,2013-10-29 00:40:00,
2013-10-28 20:55:00,55.7,53.0,30.25,North,355,0.0,0.0,89,0.00,,,0.04,0,weatherlink.com 1.10,2013-10-29 00:55:00,
2013-10-28 21:10:00,55.5,53.0,30.24,North,355,0.0,0.0,90,0.00,,,0.04,0,weatherlink.com 1.10,2013-10-29 01:10:00,
2013-10-28 21:25:00,55.1,52.0,30.24,North,355,0.0,0.0,90,0.00,,,0.04,0,weatherlink.com 1.10,2013-10-29 01:25:00,
2013-10-28 21:41:00,54.2,51.0,30.25,North,355,0.0,1.0,90,0.00,,,0.04,0,weatherlink.com 1.10,2013-10-29 01:41:00,
2013-10-28 21:55:00,53.9,52.0,30.25,North,355,0.0,0.0,92,0.00,,,0.04,0,weatherlink.com 1.10,2013-10-29 01:55:00,
2013-10-28 22:10:00,53.0,51.0,30.26,North,355,0.0,0.0,92,0.00,,,0.04,0,weatherlink.com 1.10,2013-10-29 02:10:00,
2013-10-28 22:25:00,51.5,49.0,30.26,East,88,2.0,3.0,92,0.00,,,0.04,0,weatherlink.com 1.10,2013-10-29 02:25:00,
2013-10-28 22:40:00,51.4,50.0,30.27,East,88,0.0,1.0,93,0.00,,,0.04,0,weatherlink.com 1.10,2013-10-29 02:40:00,
2013-10-28 22:56:00,51.4,50.0,30.26,East,88,0.0,0.0,94,0.00,,,0.04,0,weatherlink.com 1.10,2013-10-29 02:56:00,
2013-10-28 23:11:00,51.8,50.0,30.26,East,88,0.0,2.0,94,0.00,,,0.04,0,weatherlink.com 1.10,2013-10-29 03:11:00,
2013-10-28 23:26:00,51.8,50.0,30.26,East,88,0.0,0.0,94,0.00,,,0.04,0,weatherlink.com 1.10,2013-10-29 03:26:00,
2013-10-28 23:41:00,51.9,50.0,30.27,East,88,0.0,0.0,94,0.00,,,0.04,0,weatherlink.com 1.10,2013-10-29 03:41:00,
2013-10-28 23:56:00,52.3,51.0,30.27,East,88,0.0,1.0,94,0.00,,,0.04,0,weatherlink.com 1.10,2013-10-29 03:56:00,